Time;durP1;ratioP1;P1;durP2;ratioP2;P2;SDS_P1;SDS_P2;PMS_P1;PMS_P2;Temp;Humidity;BMP_temperature;BMP_pressure;BME280_temperature;BME280_humidity;BME280_pressure;Samples;Min_cycle;Max_cycle;Signal;HPM_P1;HPM_P2
2022/01/28 00:16:48;;;;;;;17.17;2.47;;;4.30;47.60;;;;;;4891662;29;20227;-65
2022/01/28 00:38:27;;;;;;;10.47;2.07;;;4.80;1.00;;;;;;4893149;29;20217;-65
2022/01/28 00:40:59;;;;;;;8.50;2.30;;;4.70;1.00;;;;;;4892641;29;20208;-65
2022/01/28 00:43:28;;;;;;;10.20;2.23;;;4.70;1.00;;;;;;4894589;29;20232;-66
2022/01/28 00:45:55;;;;;;;8.67;2.27;;;4.60;1.00;;;;;;4898248;29;20204;-66
2022/01/28 00:48:25;;;;;;;11.00;2.57;;;4.60;1.00;;;;;;4888301;29;20331;-66
2022/01/28 00:50:52;;;;;;;8.57;1.90;;;4.40;1.00;;;;;;4904011;29;20196;-65
2022/01/28 00:53:19;;;;;;;17.93;2.50;;;4.30;43.20;;;;;;4894559;29;20205;-65
2022/01/28 00:55:46;;;;;;;15.23;2.27;;;4.20;99.90;;;;;;4892126;29;20248;-65
2022/01/28 00:58:14;;;;;;;14.70;2.87;;;4.20;99.90;;;;;;4894754;29;20677;-65
2022/01/28 01:00:41;;;;;;;11.37;2.23;;;4.30;99.90;;;;;;4893422;29;20205;-66
2022/01/28 01:03:10;;;;;;;12.97;2.77;;;4.30;99.90;;;;;;4908574;29;20197;-66
2022/01/28 01:05:43;;;;;;;14.97;3.00;;;4.30;62.60;;;;;;4904073;29;20212;-65
2022/01/28 01:08:17;;;;;;;9.73;2.20;;;4.40;43.20;;;;;;4909621;29;20209;-65
2022/01/28 01:10:47;;;;;;;16.13;2.77;;;4.30;26.00;;;;;;4870780;29;20243;-65
2022/01/28 01:13:14;;;;;;;15.17;2.40;;;4.20;64.50;;;;;;4878312;29;20308;-65
2022/01/28 01:15:46;;;;;;;11.60;2.70;;;4.30;99.90;;;;;;4883678;29;20244;-65
2022/01/28 01:23:24;;;;;;;8.63;2.40;;;4.50;1.00;;;;;;4885468;29;20333;-65
2022/01/28 01:28:35;;;;;;;20.77;2.90;;;4.60;1.00;;;;;;4885357;29;20213;-66
2022/01/28 01:31:08;;;;;;;10.77;2.73;;;4.60;1.00;;;;;;4885257;29;20208;-65
2022/01/28 01:33:41;;;;;;;16.33;3.10;;;4.70;1.00;;;;;;4876399;29;20272;-65
2022/01/28 01:36:08;;;;;;;13.63;3.07;;;4.70;1.00;;;;;;4899097;29;20205;-65
2022/01/28 01:38:38;;;;;;;15.63;2.90;;;4.80;1.00;;;;;;4884757;29;20271;-65
2022/01/28 01:41:11;;;;;;;13.93;2.90;;;4.80;1.00;;;;;;4869398;29;20212;-65
2022/01/28 01:44:04;;;;;;;20.90;3.27;;;4.80;1.00;;;;;;4886093;29;20241;-65
2022/01/28 01:52:06;;;;;;;13.37;2.67;;;4.70;1.00;;;;;;4885432;29;20202;-65
2022/01/28 01:54:41;;;;;;;10.77;2.10;;;4.80;1.00;;;;;;4885388;29;20303;-65
2022/01/28 01:57:10;;;;;;;12.17;2.37;;;4.80;1.00;;;;;;4868868;29;20220;-66
2022/01/28 01:59:39;;;;;;;16.37;3.63;;;4.80;1.00;;;;;;4884798;29;20252;-65
2022/01/28 02:02:07;;;;;;;13.00;2.20;;;4.70;1.00;;;;;;4871817;29;20209;-65
2022/01/28 02:04:34;;;;;;;10.27;2.17;;;4.70;1.00;;;;;;4889253;29;20205;-65
2022/01/28 02:07:02;;;;;;;12.40;2.80;;;4.70;1.00;;;;;;4905473;29;20271;-65
2022/01/28 02:09:29;;;;;;;12.23;2.20;;;4.50;1.00;;;;;;4891005;29;20207;-65
2022/01/28 02:11:56;;;;;;;12.77;2.70;;;4.40;1.00;;;;;;4868555;29;20265;-65
2022/01/28 02:14:23;;;;;;;14.27;3.10;;;4.40;51.50;;;;;;4873970;29;20335;-65
2022/01/28 02:16:52;;;;;;;11.90;2.13;;;4.30;42.00;;;;;;4869445;29;20296;-65
2022/01/28 02:19:19;;;;;;;19.00;2.60;;;4.20;40.80;;;;;;4875231;29;20327;-65
2022/01/28 02:21:51;;;;;;;13.53;2.37;;;4.20;29.10;;;;;;4883972;29;20217;-66
2022/01/28 02:24:26;;;;;;;13.37;2.57;;;4.00;99.90;;;;;;4885917;29;20253;-65
2022/01/28 02:26:53;;;;;;;12.63;2.37;;;3.90;99.90;;;;;;4887021;29;20679;-65
2022/01/28 02:29:33;;;;;;;8.90;2.10;;;3.80;99.90;;;;;;4871809;29;20206;-65
2022/01/28 02:32:04;;;;;;;14.37;2.97;;;3.70;99.90;;;;;;4894204;29;20235;-65
2022/01/28 02:34:34;;;;;;;14.73;2.97;;;3.60;99.90;;;;;;4898506;29;20626;-65
2022/01/28 02:37:01;;;;;;;10.93;2.50;;;3.60;99.90;;;;;;4892376;29;20264;-65
2022/01/28 02:39:29;;;;;;;13.83;2.40;;;3.50;99.90;;;;;;4885326;29;20314;-65
2022/01/28 02:42:05;;;;;;;10.33;2.50;;;3.40;99.90;;;;;;4887972;29;20274;-65
2022/01/28 02:44:48;;;;;;;9.30;2.60;;;3.30;99.90;;;;;;4898179;29;20737;-64
2022/01/28 02:47:31;;;;;;;10.83;2.03;;;3.40;99.90;;;;;;4898836;29;20255;-65
2022/01/28 02:49:58;;;;;;;6.83;2.47;;;3.30;1.00;;;;;;4895697;29;20205;-65
2022/01/28 02:52:36;;;;;;;14.67;2.43;;;3.20;1.00;;;;;;4886675;29;20240;-65
2022/01/28 02:55:08;;;;;;;9.93;2.47;;;3.20;1.00;;;;;;4874464;29;20212;-65
2022/01/28 02:57:40;;;;;;;14.83;3.97;;;3.20;1.00;;;;;;4886951;29;20193;-65
2022/01/28 03:00:07;;;;;;;13.43;3.23;;;3.30;1.00;;;;;;4884508;29;20213;-64
2022/01/28 03:02:34;;;;;;;16.73;3.03;;;3.20;1.00;;;;;;4891871;29;20698;-65
2022/01/28 03:07:34;;;;;;;8.83;2.43;;;3.20;1.00;;;;;;4887007;29;20237;-64
2022/01/28 03:12:47;;;;;;;12.70;2.27;;;3.20;1.00;;;;;;4890623;29;20213;-65
2022/01/28 03:15:20;;;;;;;23.07;2.87;;;3.20;1.00;;;;;;4891372;29;20240;-65
2022/01/28 03:17:53;;;;;;;12.07;2.80;;;3.10;1.00;;;;;;4908436;29;20547;-65
2022/01/28 03:20:37;;;;;;;12.07;2.53;;;3.10;1.00;;;;;;4892319;29;20291;-64
2022/01/28 03:23:07;;;;;;;10.23;2.73;;;3.10;1.00;;;;;;4888153;29;20561;-64
2022/01/28 03:25:36;;;;;;;16.73;3.13;;;3.10;1.00;;;;;;4891570;29;20205;-64
2022/01/28 03:28:06;;;;;;;13.03;3.00;;;3.10;1.00;;;;;;4892408;29;20285;-65
2022/01/28 03:30:33;;;;;;;13.73;2.10;;;3.10;1.00;;;;;;4892852;29;20629;-65
2022/01/28 03:33:00;;;;;;;12.67;2.27;;;3.00;1.00;;;;;;4891107;29;20233;-64
2022/01/28 03:35:35;;;;;;;16.30;2.87;;;2.80;1.00;;;;;;4894623;29;20208;-64
2022/01/28 03:38:10;;;;;;;10.00;2.60;;;2.90;1.00;;;;;;4909742;29;20209;-64
2022/01/28 03:40:41;;;;;;;11.50;3.07;;;2.90;1.00;;;;;;4895479;29;20213;-64
2022/01/28 03:43:08;;;;;;;17.43;2.50;;;3.00;9.30;;;;;;4895565;29;20253;-64
2022/01/28 03:45:38;;;;;;;20.40;3.27;;;2.90;51.60;;;;;;4908334;29;20193;-65
2022/01/28 03:48:05;;;;;;;12.53;3.10;;;3.00;84.40;;;;;;4879330;29;20209;-64
2022/01/28 03:50:34;;;;;;;12.67;2.97;;;3.00;68.10;;;;;;4895450;29;20281;-65
2022/01/28 03:53:05;;;;;;;15.27;3.27;;;2.90;1.00;;;;;;4894481;29;20552;-65
2022/01/28 03:55:32;;;;;;;20.70;3.80;;;3.00;23.50;;;;;;4894273;29;20292;-65
2022/01/28 03:58:05;;;;;;;19.53;3.27;;;3.00;1.00;;;;;;4893659;29;20205;-64
2022/01/28 04:00:34;;;;;;;13.97;3.07;;;3.10;1.00;;;;;;4888265;29;20229;-64
2022/01/28 04:03:12;;;;;;;14.43;2.90;;;3.10;1.00;;;;;;4888762;29;20692;-64
2022/01/28 04:13:51;;;;;;;14.30;3.00;;;3.40;1.00;;;;;;4893765;29;20280;-64
2022/01/28 04:18:48;;;;;;;13.00;3.40;;;3.60;99.90;;;;;;4895070;29;20678;-64
2022/01/28 04:21:15;;;;;;;18.50;3.60;;;3.60;99.90;;;;;;4892857;29;20201;-65
2022/01/28 04:23:42;;;;;;;21.17;3.13;;;3.60;99.90;;;;;;4895112;29;20201;-66
2022/01/28 04:26:17;;;;;;;15.13;2.93;;;3.60;99.90;;;;;;4879951;29;20212;-64
2022/01/28 04:28:46;;;;;;;16.23;3.53;;;3.70;99.90;;;;;;4893416;29;20209;-64
2022/01/28 04:31:13;;;;;;;18.50;3.60;;;3.60;99.90;;;;;;4894230;29;20213;-64
2022/01/28 04:33:40;;;;;;;14.47;4.57;;;3.60;99.90;;;;;;4893562;29;20202;-64
2022/01/28 04:36:10;;;;;;;15.70;3.50;;;3.60;99.90;;;;;;4894800;29;20205;-65
2022/01/28 04:38:50;;;;;;;20.50;3.50;;;3.70;99.90;;;;;;4871798;29;20226;-64
2022/01/28 04:41:28;;;;;;;12.73;3.23;;;3.70;99.90;;;;;;4893738;29;20224;-64
2022/01/28 04:44:03;;;;;;;11.80;2.90;;;3.70;99.90;;;;;;4893743;29;20204;-64
2022/01/28 04:46:40;;;;;;;11.77;3.33;;;3.70;99.90;;;;;;4876438;29;20204;-65
2022/01/28 04:49:22;;;;;;;11.70;2.87;;;3.70;99.90;;;;;;4894398;29;20763;-65
2022/01/28 04:52:13;;;;;;;13.23;3.03;;;3.60;99.90;;;;;;4888039;29;20236;-65
2022/01/28 05:10:57;;;;;;;18.93;3.27;;;3.90;99.90;;;;;;4893981;29;20656;-65
2022/01/28 05:16:47;;;;;;;13.90;3.33;;;4.00;99.90;;;;;;4889436;29;20261;-64
2022/01/28 05:29:04;;;;;;;13.80;2.80;;;4.10;99.90;;;;;;4886977;29;20228;-64
2022/01/28 05:31:33;;;;;;;12.40;2.60;;;4.10;99.90;;;;;;4885221;29;20684;-64
2022/01/28 05:34:02;;;;;;;8.67;2.40;;;4.10;99.90;;;;;;4901779;29;20245;-64
2022/01/28 05:36:29;;;;;;;17.93;2.93;;;4.10;99.90;;;;;;4900486;29;20212;-66
2022/01/28 05:38:58;;;;;;;16.83;3.00;;;4.20;99.90;;;;;;4871333;29;20207;-65
2022/01/28 05:41:26;;;;;;;17.00;3.20;;;4.10;99.90;;;;;;4888960;29;20661;-65
2022/01/28 05:44:02;;;;;;;15.97;2.93;;;3.90;99.90;;;;;;4903456;29;21180;-64
2022/01/28 05:46:31;;;;;;;12.63;2.60;;;3.80;99.90;;;;;;4886039;29;20228;-64
2022/01/28 05:48:58;;;;;;;24.17;3.73;;;3.70;1.00;;;;;;4903062;29;20304;-65
2022/01/28 05:51:33;;;;;;;15.67;3.03;;;3.70;1.00;;;;;;4905447;29;20197;-65
2022/01/28 05:54:00;;;;;;;22.97;3.83;;;3.60;1.00;;;;;;4891829;29;20303;-64
2022/01/28 05:56:27;;;;;;;19.33;4.60;;;3.50;1.00;;;;;;4900562;29;20205;-64
2022/01/28 05:58:57;;;;;;;21.60;3.80;;;3.50;1.00;;;;;;4885350;29;20249;-65
2022/01/28 06:01:32;;;;;;;24.33;5.27;;;3.40;1.00;;;;;;4870443;29;20193;-64
2022/01/28 06:04:04;;;;;;;28.07;4.67;;;3.50;1.00;;;;;;4891963;29;20201;-64
2022/01/28 06:06:32;;;;;;;21.63;3.60;;;3.50;1.00;;;;;;4884400;29;20288;-65
2022/01/28 06:08:59;;;;;;;19.30;4.17;;;3.60;1.00;;;;;;4889183;29;20708;-64
2022/01/28 06:11:26;;;;;;;19.50;3.73;;;3.70;1.00;;;;;;4882699;29;20261;-64
2022/01/28 06:14:02;;;;;;;21.13;3.87;;;3.70;1.00;;;;;;4905131;29;20249;-66
2022/01/28 06:16:28;;;;;;;20.77;3.80;;;3.80;1.00;;;;;;4906178;29;20192;-65
2022/01/28 06:18:58;;;;;;;12.40;2.97;;;3.80;1.00;;;;;;4875615;29;20287;-64
2022/01/28 06:21:27;;;;;;;16.30;3.83;;;3.90;1.00;;;;;;4891447;29;20236;-65
2022/01/28 06:23:56;;;;;;;14.17;3.70;;;3.90;1.00;;;;;;4893681;29;20235;-64
2022/01/28 06:26:23;;;;;;;11.93;3.10;;;3.90;1.00;;;;;;4905564;29;20749;-64
2022/01/28 06:28:53;;;;;;;12.80;4.20;;;3.90;1.00;;;;;;4892603;29;20204;-64
2022/01/28 06:31:25;;;;;;;27.33;7.13;;;3.90;99.90;;;;;;4906298;29;20284;-65
2022/01/28 06:33:54;;;;;;;15.80;6.43;;;4.00;99.90;;;;;;4907419;29;20205;-65
2022/01/28 06:36:21;;;;;;;22.50;8.90;;;3.90;99.90;;;;;;4905113;29;20208;-65
2022/01/28 06:38:49;;;;;;;17.63;3.60;;;3.90;99.90;;;;;;4890189;29;20300;-65
2022/01/28 06:41:20;;;;;;;19.83;3.30;;;3.90;1.00;;;;;;4907681;29;20311;-65
2022/01/28 06:43:47;;;;;;;20.73;4.43;;;3.80;1.00;;;;;;4897547;29;20224;-64
2022/01/28 06:46:16;;;;;;;12.73;3.77;;;3.80;1.00;;;;;;4894060;29;20201;-64
2022/01/28 06:48:43;;;;;;;17.63;2.97;;;3.80;1.00;;;;;;4892498;29;20208;-64
2022/01/28 06:51:10;;;;;;;19.37;3.30;;;3.80;1.00;;;;;;4912246;29;20330;-65
2022/01/28 06:53:37;;;;;;;17.07;3.27;;;3.90;1.00;;;;;;4912258;29;20266;-64
2022/01/28 06:56:06;;;;;;;17.33;2.77;;;3.90;1.00;;;;;;4895544;29;20217;-64
2022/01/28 06:58:33;;;;;;;14.20;3.40;;;3.90;99.90;;;;;;4891083;29;20235;-64
2022/01/28 07:01:00;;;;;;;19.37;3.70;;;3.90;99.90;;;;;;4889459;29;20245;-64
2022/01/28 07:03:27;;;;;;;15.30;2.97;;;4.00;99.90;;;;;;4895290;29;20255;-64
2022/01/28 07:05:57;;;;;;;15.90;2.90;;;4.00;99.90;;;;;;4908126;29;20192;-64
2022/01/28 07:08:27;;;;;;;18.67;4.10;;;4.00;99.90;;;;;;4897058;29;20232;-64
2022/01/28 07:10:56;;;;;;;12.43;3.27;;;4.00;99.90;;;;;;4908300;29;20217;-64
2022/01/28 07:13:23;;;;;;;17.23;4.43;;;4.00;99.90;;;;;;4907627;29;20664;-64
2022/01/28 07:15:52;;;;;;;14.60;2.93;;;4.00;99.90;;;;;;4888198;29;20240;-64
2022/01/28 07:18:20;;;;;;;12.20;3.00;;;4.00;99.90;;;;;;4905577;29;20704;-64
2022/01/28 07:20:47;;;;;;;16.47;3.37;;;4.00;99.90;;;;;;4893911;29;20256;-64
2022/01/28 07:23:16;;;;;;;12.57;3.20;;;4.00;99.90;;;;;;4880660;29;20239;-65
2022/01/28 07:25:43;;;;;;;16.70;3.37;;;4.00;99.90;;;;;;4895898;29;20299;-64
2022/01/28 07:28:10;;;;;;;16.30;3.20;;;4.00;99.90;;;;;;4898333;29;20626;-64
2022/01/28 07:30:37;;;;;;;13.53;3.37;;;4.10;99.90;;;;;;4897100;29;20269;-65
2022/01/28 07:33:08;;;;;;;17.50;3.10;;;4.10;99.90;;;;;;4893898;29;20212;-64
2022/01/28 07:35:38;;;;;;;9.50;2.90;;;4.20;99.90;;;;;;4896242;29;20240;-65
2022/01/28 07:38:05;;;;;;;18.67;3.87;;;4.20;99.90;;;;;;4906318;29;20193;-65
2022/01/28 07:40:36;;;;;;;17.30;3.57;;;4.20;99.90;;;;;;4906964;29;20208;-65
2022/01/28 07:43:03;;;;;;;11.17;2.70;;;4.20;99.90;;;;;;4892460;29;20216;-64
2022/01/28 07:45:35;;;;;;;15.57;3.30;;;4.30;99.90;;;;;;4894922;29;20454;-64
2022/01/28 07:48:02;;;;;;;9.43;2.67;;;4.20;99.90;;;;;;4892855;29;20211;-64
2022/01/28 07:50:29;;;;;;;19.00;3.37;;;4.20;99.90;;;;;;4875212;29;20743;-66
2022/01/28 07:52:56;;;;;;;21.23;4.57;;;4.20;99.90;;;;;;4879129;29;20215;-64
2022/01/28 07:55:23;;;;;;;21.43;3.57;;;4.30;99.90;;;;;;4881325;29;20740;-64
2022/01/28 07:57:52;;;;;;;12.17;2.87;;;4.30;99.90;;;;;;4891261;29;20328;-64
2022/01/28 08:00:26;;;;;;;17.60;3.63;;;4.40;99.90;;;;;;4904041;29;20246;-64
2022/01/28 08:03:00;;;;;;;14.93;2.83;;;4.40;85.30;;;;;;4903701;29;20204;-64
2022/01/28 08:05:30;;;;;;;20.47;3.77;;;4.40;76.10;;;;;;4892485;29;20748;-65
2022/01/28 08:07:58;;;;;;;18.70;3.17;;;4.40;98.90;;;;;;4890274;29;20264;-64
2022/01/28 08:10:32;;;;;;;14.73;3.37;;;4.50;92.10;;;;;;4903915;29;20215;-65
2022/01/28 08:13:02;;;;;;;15.80;3.17;;;4.50;18.50;;;;;;4903215;29;20751;-64
2022/01/28 08:15:29;;;;;;;15.43;3.77;;;4.60;1.00;;;;;;4855295;29;1099289;-64
2022/01/28 08:17:59;;;;;;;21.70;5.20;;;4.60;1.00;;;;;;4894354;29;20204;-64
2022/01/28 08:20:26;;;;;;;18.07;3.60;;;4.60;1.00;;;;;;4905322;29;20291;-64
2022/01/28 08:22:57;;;;;;;21.33;3.70;;;4.80;1.00;;;;;;4885894;29;20196;-65
2022/01/28 08:25:32;;;;;;;13.03;3.83;;;4.80;1.00;;;;;;4889518;29;20571;-65
2022/01/28 08:28:00;;;;;;;24.37;4.67;;;5.00;1.00;;;;;;4904732;29;20661;-64
2022/01/28 08:30:29;;;;;;;13.23;3.93;;;5.20;1.00;;;;;;4894328;29;20617;-65
2022/01/28 08:32:58;;;;;;;13.77;3.30;;;5.40;1.00;;;;;;4891596;29;20340;-64
2022/01/28 08:35:31;;;;;;;17.40;3.50;;;5.50;1.00;;;;;;4891981;29;20675;-64
2022/01/28 08:38:15;;;;;;;18.90;4.23;;;5.60;99.90;;;;;;4891481;29;20259;-66
2022/01/28 08:40:43;;;;;;;17.00;3.67;;;5.70;99.90;;;;;;4904969;29;20590;-66
2022/01/28 08:43:10;;;;;;;17.20;3.90;;;6.00;99.90;;;;;;4893822;29;20287;-65
2022/01/28 08:45:43;;;;;;;22.20;4.40;;;6.30;99.90;;;;;;4905845;29;20564;-65
2022/01/28 08:48:10;;;;;;;12.90;3.10;;;6.40;79.60;;;;;;4907106;29;20218;-65
2022/01/28 08:50:37;;;;;;;18.07;3.43;;;6.10;54.80;;;;;;4872296;29;20200;-65
2022/01/28 08:53:04;;;;;;;20.17;4.00;;;6.00;99.90;;;;;;4904851;29;20200;-65
2022/01/28 08:55:31;;;;;;;14.90;2.97;;;5.80;99.90;;;;;;4893222;29;20260;-65
2022/01/28 08:57:58;;;;;;;15.00;3.50;;;5.50;99.90;;;;;;4877806;29;20227;-65
2022/01/28 09:00:25;;;;;;;16.43;3.57;;;5.40;99.90;;;;;;4892933;29;20618;-64
2022/01/28 09:02:52;;;;;;;21.10;3.43;;;5.40;99.90;;;;;;4893764;29;20262;-64
2022/01/28 09:05:19;;;;;;;25.53;4.37;;;5.50;99.90;;;;;;4878998;29;20236;-64
2022/01/28 09:07:48;;;;;;;16.90;3.30;;;5.40;99.90;;;;;;4894880;29;20753;-64
2022/01/28 09:10:18;;;;;;;17.53;3.47;;;5.40;99.90;;;;;;4909997;29;20209;-64
2022/01/28 09:12:59;;;;;;;16.53;3.43;;;5.40;99.90;;;;;;4909448;29;20269;-65
2022/01/28 09:15:26;;;;;;;15.17;3.93;;;5.30;1.00;;;;;;4905892;29;20728;-64
2022/01/28 09:17:57;;;;;;;27.27;4.93;;;5.20;1.00;;;;;;4880260;29;20219;-64
2022/01/28 09:20:28;;;;;;;23.03;3.73;;;5.20;1.00;;;;;;4908426;29;20322;-64
2022/01/28 09:22:57;;;;;;;17.03;3.33;;;5.30;1.00;;;;;;4894162;29;20223;-64
2022/01/28 09:25:24;;;;;;;14.13;3.93;;;5.40;1.00;;;;;;4889520;29;20212;-64
2022/01/28 09:27:51;;;;;;;17.83;3.87;;;5.60;99.90;;;;;;4892790;29;20255;-64
2022/01/28 09:30:18;;;;;;;16.37;3.60;;;5.80;99.90;;;;;;4908363;29;20248;-64
2022/01/28 09:32:46;;;;;;;15.10;3.20;;;5.80;99.90;;;;;;4909344;29;20271;-64
2022/01/28 09:35:13;;;;;;;17.90;4.03;;;5.80;99.90;;;;;;4891988;29;20231;-64
2022/01/28 09:37:40;;;;;;;17.90;4.00;;;5.90;99.90;;;;;;4888972;29;20291;-64
2022/01/28 09:40:08;;;;;;;14.10;3.70;;;5.80;99.90;;;;;;4892467;29;20300;-64
2022/01/28 09:42:38;;;;;;;21.73;3.23;;;5.80;99.90;;;;;;4893373;29;20581;-64
2022/01/28 09:45:07;;;;;;;20.30;3.93;;;5.90;99.90;;;;;;4893236;29;20227;-65
2022/01/28 09:47:37;;;;;;;17.77;4.00;;;6.00;99.90;;;;;;4903032;29;20193;-64
2022/01/28 09:50:05;;;;;;;14.93;3.40;;;6.10;99.90;;;;;;4905476;29;20915;-64
2022/01/28 10:14:34;;;;;;;27.00;3.80;;;7.40;1.00;;;;;;4828889;27;1271685;-65
2022/01/28 10:17:02;;;;;;;16.37;4.10;;;10.20;1.00;;;;;;5030810;28;20278;-65
2022/01/28 10:19:40;;;;;;;13.97;3.83;;;14.70;99.90;;;;;;5001497;28;20244;-65
2022/01/28 10:22:20;;;;;;;18.00;3.70;;;13.60;99.90;;;;;;5025661;28;20591;-65
2022/01/28 10:29:02;;;;;;;18.13;4.37;;;12.40;99.90;;;;;;5001182;28;20184;-64
2022/01/28 10:31:35;;;;;;;16.77;4.13;;;11.90;99.90;;;;;;5003652;28;20196;-65
2022/01/28 10:34:27;;;;;;;21.60;4.17;;;10.70;1.00;;;;;;5005255;28;20780;-64
2022/01/28 10:37:15;;;;;;;18.47;4.67;;;10.30;1.00;;;;;;5006153;28;20239;-64
2022/01/28 10:39:49;;;;;;;12.60;3.43;;;10.60;1.00;;;;;;4987890;28;20280;-65
2022/01/28 10:42:51;;;;;;;19.47;4.30;;;13.30;99.90;;;;;;4998093;28;20211;-65
2022/01/28 10:45:20;;;;;;;24.57;4.40;;;12.90;99.90;;;;;;5005826;28;20279;-65
2022/01/28 10:47:55;;;;;;;13.20;3.50;;;11.90;99.90;;;;;;5009622;28;20200;-64
2022/01/28 10:50:32;;;;;;;16.95;4.32;;;14.00;99.90;;;;;;4991373;28;20731;-64
2022/01/28 10:53:04;;;;;;;17.20;4.10;;;15.90;99.90;;;;;;5017690;28;20265;-65
2022/01/28 10:55:37;;;;;;;15.05;3.85;;;13.50;99.90;;;;;;4983149;28;20220;-64
2022/01/28 10:58:18;;;;;;;19.77;4.93;;;12.20;99.90;;;;;;5006110;28;20193;-64
2022/01/28 11:00:47;;;;;;;16.43;4.10;;;11.70;99.90;;;;;;5007809;28;20189;-64
2022/01/28 11:03:17;;;;;;;15.30;4.38;;;15.60;99.90;;;;;;5010980;28;20245;-66
2022/01/28 11:05:44;;;;;;;14.27;4.00;;;18.40;99.90;;;;;;5002097;28;20205;-65
2022/01/28 11:08:13;;;;;;;13.63;3.78;;;17.30;99.90;;;;;;5000028;28;20200;-65
2022/01/28 11:10:41;;;;;;;12.10;3.33;;;18.30;99.90;;;;;;4996502;28;20539;-65
2022/01/28 11:13:12;;;;;;;11.30;3.58;;;18.90;99.90;;;;;;5000092;28;20740;-65
2022/01/28 11:15:41;;;;;;;16.63;4.18;;;19.30;99.90;;;;;;5048488;28;20228;-65
2022/01/28 11:18:10;;;;;;;16.27;3.88;;;20.30;99.90;;;;;;5064769;28;20669;-65
2022/01/28 11:20:51;;;;;;;16.77;3.75;;;20.50;99.90;;;;;;5068592;28;20576;-65
2022/01/28 11:23:29;;;;;;;11.73;3.72;;;20.20;99.90;;;;;;5068190;28;20194;-66
2022/01/28 11:26:22;;;;;;;15.45;4.20;;;19.30;99.90;;;;;;5052033;28;20196;-65
2022/01/28 11:28:54;;;;;;;17.00;3.60;;;16.40;99.90;;;;;;5065505;28;20229;-65
2022/01/28 11:31:42;;;;;;;14.50;3.67;;;14.30;99.90;;;;;;5061160;28;20242;-65
2022/01/28 11:34:32;;;;;;;15.55;3.08;;;13.60;99.90;;;;;;5077752;28;20205;-65
2022/01/28 11:37:05;;;;;;;14.75;3.72;;;12.80;99.90;;;;;;5076402;28;20205;-65
2022/01/28 11:39:38;;;;;;;14.97;3.80;;;12.30;99.90;;;;;;5079666;28;20197;-65
2022/01/28 11:42:13;;;;;;;14.80;4.00;;;11.70;99.90;;;;;;5069847;28;20221;-65
2022/01/28 11:44:51;;;;;;;20.50;3.70;;;11.80;99.90;;;;;;5017724;28;20670;-67
2022/01/28 11:47:27;;;;;;;20.37;3.57;;;11.50;99.90;;;;;;5077664;28;20551;-64
2022/01/28 11:50:08;;;;;;;16.23;4.33;;;11.40;99.90;;;;;;5078829;28;20247;-66
2022/01/28 11:52:50;;;;;;;13.43;3.40;;;11.70;99.90;;;;;;5057973;28;20301;-65
2022/01/28 11:55:28;;;;;;;16.03;3.80;;;12.60;99.90;;;;;;4998526;28;20214;-65
2022/01/28 11:58:12;;;;;;;15.18;3.60;;;14.50;99.90;;;;;;5073667;28;20203;-65
2022/01/28 12:00:43;;;;;;;12.07;3.08;;;14.60;99.90;;;;;;5063051;28;20535;-65
2022/01/28 12:03:19;;;;;;;9.55;3.42;;;14.90;99.90;;;;;;5070246;28;20185;-65
2022/01/28 12:05:46;;;;;;;14.70;3.70;;;15.60;99.90;;;;;;5007815;28;20197;-65
2022/01/28 12:08:16;;;;;;;15.13;4.00;;;16.20;99.90;;;;;;5020891;28;20731;-65
2022/01/28 12:10:45;;;;;;;14.20;3.55;;;16.10;99.90;;;;;;5085149;27;20560;-65
2022/01/28 12:13:17;;;;;;;15.60;3.83;;;15.70;99.90;;;;;;5072292;28;20205;-65
2022/01/28 12:16:01;;;;;;;10.90;3.25;;;16.00;99.90;;;;;;5007549;28;20209;-65
2022/01/28 12:23:02;;;;;;;15.27;4.03;;;15.70;99.90;;;;;;4745771;28;20191;-65
2022/01/28 12:25:35;;;;;;;17.58;4.28;;;15.30;99.90;;;;;;5061718;28;20213;-65
2022/01/28 12:28:12;;;;;;;22.77;4.43;;;14.80;99.90;;;;;;5050472;28;20201;-65
2022/01/28 12:30:39;;;;;;;17.50;4.68;;;14.90;99.90;;;;;;5047464;28;20953;-65
2022/01/28 12:33:08;;;;;;;18.83;5.43;;;14.50;99.90;;;;;;5091184;28;20197;-66
2022/01/28 12:35:40;;;;;;;20.88;3.97;;;13.60;99.90;;;;;;5078401;28;20405;-66
2022/01/28 12:38:07;;;;;;;20.40;3.80;;;13.30;99.90;;;;;;5062634;28;20232;-66
2022/01/28 12:40:42;;;;;;;17.88;4.30;;;12.60;99.90;;;;;;5079432;28;20284;-66
2022/01/28 12:43:09;;;;;;;18.67;5.43;;;12.00;99.90;;;;;;5044044;28;20196;-66
2022/01/28 12:45:38;;;;;;;17.30;4.07;;;11.60;99.90;;;;;;5014033;28;20217;-66
2022/01/28 12:48:08;;;;;;;19.73;4.70;;;11.70;99.90;;;;;;5074775;28;20231;-65
2022/01/28 12:50:36;;;;;;;14.87;3.73;;;11.80;99.90;;;;;;5063765;28;20296;-65
2022/01/28 12:53:03;;;;;;;8.93;4.13;;;11.60;99.90;;;;;;5068366;28;20214;-65
2022/01/28 12:55:33;;;;;;;15.03;3.70;;;11.50;99.90;;;;;;5057248;28;20244;-65
2022/01/28 12:58:00;;;;;;;14.80;3.83;;;12.10;99.90;;;;;;5083168;28;20203;-65
2022/01/28 13:00:27;;;;;;;18.20;4.63;;;12.20;99.90;;;;;;5062645;28;20299;-65
2022/01/28 13:02:56;;;;;;;22.10;4.00;;;12.30;99.90;;;;;;5056588;28;20215;-65
2022/01/28 13:05:37;;;;;;;29.83;5.13;;;12.00;99.90;;;;;;5018147;28;20737;-64
2022/01/28 13:10:50;;;;;;;18.57;3.90;;;10.60;99.90;;;;;;5068121;28;20208;-64
2022/01/28 13:13:19;;;;;;;20.40;3.67;;;10.30;99.90;;;;;;5060351;28;20345;-65
2022/01/28 13:15:54;;;;;;;24.20;4.43;;;10.00;99.90;;;;;;5045057;28;20210;-65
2022/01/28 13:18:21;;;;;;;18.60;4.33;;;9.70;99.90;;;;;;5050210;28;20200;-65
2022/01/28 13:20:48;;;;;;;20.10;4.43;;;9.70;99.90;;;;;;5083272;28;20200;-64
2022/01/28 13:23:15;;;;;;;20.87;5.43;;;9.60;99.90;;;;;;5062152;28;20201;-65
2022/01/28 13:25:42;;;;;;;22.10;5.50;;;9.70;99.90;;;;;;5049502;28;20541;-65
2022/01/28 13:28:19;;;;;;;17.43;6.50;;;9.80;99.90;;;;;;5056644;28;20239;-66
2022/01/28 13:30:57;;;;;;;26.63;4.43;;;9.90;99.90;;;;;;5066015;28;20189;-65
2022/01/28 13:33:29;;;;;;;16.83;4.10;;;9.60;99.90;;;;;;5051484;28;20200;-65
2022/01/28 13:36:06;;;;;;;17.40;3.77;;;9.60;99.90;;;;;;5076323;28;20212;-65
2022/01/28 13:38:36;;;;;;;22.07;4.50;;;9.70;99.90;;;;;;5060720;28;20212;-65
2022/01/28 13:41:23;;;;;;;18.13;5.43;;;9.80;99.90;;;;;;4996353;28;20213;-65
2022/01/28 13:43:50;;;;;;;17.07;3.67;;;9.80;99.90;;;;;;5051430;28;20192;-64
2022/01/28 13:46:17;;;;;;;17.47;4.50;;;9.70;99.90;;;;;;5065067;28;20557;-65
2022/01/28 13:48:47;;;;;;;17.00;4.00;;;9.60;99.90;;;;;;5062410;28;20207;-65
2022/01/28 13:51:17;;;;;;;17.07;4.43;;;9.50;99.90;;;;;;5060823;28;20201;-65
2022/01/28 13:56:35;;;;;;;30.93;5.70;;;9.70;99.90;;;;;;5044229;28;20236;-64
2022/01/28 13:59:13;;;;;;;17.43;5.10;;;9.60;99.90;;;;;;5058417;28;20197;-66
2022/01/28 14:01:49;;;;;;;28.90;5.30;;;9.50;99.90;;;;;;4991434;28;20279;-65
2022/01/28 14:04:21;;;;;;;20.30;4.20;;;9.50;99.90;;;;;;5040161;28;20265;-65
2022/01/28 14:07:15;;;;;;;18.30;3.60;;;9.40;99.90;;;;;;5850453;23;20217;31
2022/01/28 14:09:56;;;;;;;19.03;3.80;;;9.30;99.90;;;;;;4906858;28;20727;-64
2022/01/28 14:15:15;;;;;;;23.57;5.23;;;9.10;99.90;;;;;;4906834;28;20278;-65
2022/01/28 14:17:42;;;;;;;19.63;5.30;;;8.90;99.90;;;;;;4909650;28;20302;-66
2022/01/28 14:20:11;;;;;;;16.10;4.20;;;9.00;99.90;;;;;;4910457;28;20294;-67
2022/01/28 14:22:40;;;;;;;16.20;3.57;;;9.00;99.90;;;;;;4910514;28;20201;-66
2022/01/28 14:25:08;;;;;;;17.77;4.40;;;9.00;99.90;;;;;;4908207;28;20627;-65
2022/01/28 14:32:45;;;;;;;14.17;3.47;;;9.10;99.90;;;;;;4924918;28;20560;-65
2022/01/28 14:35:13;;;;;;;10.80;3.37;;;9.00;99.90;;;;;;4909971;28;20308;-65
2022/01/28 14:37:40;;;;;;;18.23;4.07;;;9.00;1.00;;;;;;4905630;28;20283;-65
2022/01/28 14:40:10;;;;;;;18.73;4.00;;;8.90;1.00;;;;;;4907899;28;20259;-65
2022/01/28 14:42:37;;;;;;;18.20;4.37;;;8.80;1.00;;;;;;4900823;28;20230;-66
2022/01/28 14:45:09;;;;;;;16.37;3.93;;;8.50;1.00;;;;;;4902534;28;20205;-64
2022/01/28 14:47:37;;;;;;;16.03;4.67;;;8.20;1.00;;;;;;4908362;28;20204;-65
2022/01/28 14:50:07;;;;;;;16.60;4.17;;;8.00;1.00;;;;;;4918997;28;20235;-65
2022/01/28 14:52:36;;;;;;;17.53;4.37;;;8.00;1.00;;;;;;4908915;28;20189;-65
2022/01/28 14:55:04;;;;;;;16.03;3.73;;;8.00;1.00;;;;;;4913638;28;20687;-66
2022/01/28 14:57:31;;;;;;;16.13;3.97;;;8.00;1.00;;;;;;4915942;28;20204;-65
2022/01/28 14:59:58;;;;;;;17.37;4.10;;;8.00;1.00;;;;;;4910202;28;20213;-64
2022/01/28 15:02:27;;;;;;;15.17;3.87;;;8.00;1.00;;;;;;4911609;28;20204;-65
2022/01/28 15:04:58;;;;;;;15.07;3.47;;;7.70;1.00;;;;;;4906555;28;20204;-67
2022/01/28 15:07:28;;;;;;;26.10;4.93;;;7.50;1.00;;;;;;4925118;28;20293;-65
2022/01/28 15:09:58;;;;;;;18.37;4.47;;;7.40;1.00;;;;;;4923023;28;20223;-65
2022/01/28 15:12:26;;;;;;;26.43;5.83;;;7.30;1.00;;;;;;4942404;28;20204;-65
2022/01/28 15:14:58;;;;;;;13.37;4.07;;;7.10;11.50;;;;;;4926287;28;20207;-65
2022/01/28 15:17:30;;;;;;;16.80;4.07;;;7.00;41.50;;;;;;4925189;28;20556;-65
2022/01/28 15:19:59;;;;;;;20.33;4.77;;;6.90;92.20;;;;;;4924494;28;20196;-66
2022/01/28 15:22:26;;;;;;;16.27;3.70;;;6.90;99.90;;;;;;4922127;28;20192;-65
2022/01/28 15:24:55;;;;;;;16.50;3.77;;;6.80;99.90;;;;;;4925077;28;20297;-65